»·PEaware :: QXE2303 KEUG-KPDX

QXE2303 :: KEUG-KPDX

FLIGHT INFORMATION

Flight Status: Arrived
Operator:
Horizon Air
More flights by this operator :: More flights under this callsign
Pilot: Doug L. (8712)
Aircraft: DEHAVILLAND DASH 8 400
(DH8D)
More flights by this aircraft type
Origin: KEUG Mahlon Sweet
United States
Destination: KPDX Portland Intl
United States
More flights between these airports :: More routes between these airports
Route: +EUG1 CITYY TMBRS2
File this flight plan on PilotEdge
Remarks:
Altitude:
(Current/Filed)
13,000ft
Speed:
(Current/Filed)
320kts
Departed: 24-Feb-19 10:07 AM
Arrived: 24-Feb-19 10:41 AM
Distance/Time
Traveled:
92nm/0:33
Distance/Time
To Go:
Arrived

Flight Plot

Page will automatically refresh every two minutes.

Flight plan parsing failed; only flown route is shown


Map Options




Map Legend


Flown Route
Filed Route
Departure Airport
Arrival Airport
Navaid (VOR, NDB)
Fix

Horizontal Profiles

Position Reports

Time Latitude Longitude Heading Altitude Ground
Speed
24-Feb-19 09:46 44.120328 -123.214023 208 376ft 0kts
24-Feb-19 09:47 44.120328 -123.214023 208 376ft 0kts
24-Feb-19 09:48 44.120328 -123.214023 208 376ft 0kts
24-Feb-19 09:49 44.120328 -123.214023 208 376ft 0kts
24-Feb-19 09:50 44.120328 -123.214023 208 376ft 0kts
24-Feb-19 09:51 44.120328 -123.214023 208 376ft 0kts
24-Feb-19 09:52 44.120328 -123.214023 208 376ft 0kts
24-Feb-19 09:53 44.120328 -123.214023 208 376ft 0kts
24-Feb-19 09:54 44.120328 -123.214023 208 376ft 0kts
24-Feb-19 09:55 44.120328 -123.214023 208 376ft 0kts
24-Feb-19 09:56 44.120328 -123.214023 208 376ft 0kts
24-Feb-19 09:57 44.120328 -123.214023 208 376ft 0kts
24-Feb-19 09:58 44.120616 -123.213801 211 376ft 2kts
24-Feb-19 09:59 44.120844 -123.213177 297 376ft 2kts
24-Feb-19 10:00 44.120820 -123.213111 297 376ft 0kts
24-Feb-19 10:01 44.121210 -123.214112 307 376ft 12kts
24-Feb-19 10:02 44.126854 -123.217220 359 376ft 31kts
24-Feb-19 10:03 44.133547 -123.217320 359 376ft 20kts
24-Feb-19 10:04 44.134872 -123.217345 359 376ft 0kts
24-Feb-19 10:05 44.135391 -123.218877 255 376ft 11kts
24-Feb-19 10:06 44.110543 -123.218200 175 1235ft 147kts
24-Feb-19 10:07 44.067973 -123.216645 180 3990ft 155kts
24-Feb-19 10:08 44.020122 -123.212559 179 6727ft 175kts
24-Feb-19 10:09 43.989039 -123.169226 66 9550ft 215kts
24-Feb-19 10:10 44.035605 -123.115620 25 12057ft 224kts
24-Feb-19 10:11 44.091915 -123.060499 25 13005ft 288kts
24-Feb-19 10:12 44.165015 -122.993751 25 13011ft 340kts
24-Feb-19 10:13 44.248228 -122.920998 25 13007ft 363kts
24-Feb-19 10:14 44.336881 -122.862865 352 13003ft 343kts
24-Feb-19 10:15 44.428897 -122.878359 356 13001ft 345kts
24-Feb-19 10:16 44.522072 -122.835382 15 13014ft 358kts
24-Feb-19 10:17 44.612043 -122.787190 13 12993ft 341kts
24-Feb-19 10:18 44.694810 -122.744060 13 12992ft 333kts
24-Feb-19 10:19 44.778921 -122.699808 13 12990ft 329kts
24-Feb-19 10:20 44.866856 -122.680857 355 12877ft 331kts
24-Feb-19 10:21 44.958947 -122.673413 359 11127ft 323kts
24-Feb-19 10:22 45.041192 -122.664839 0 9663ft 287kts
24-Feb-19 10:23 45.118648 -122.656571 0 9045ft 284kts
24-Feb-19 10:24 45.194743 -122.648981 1 7863ft 276kts
24-Feb-19 10:25 45.264581 -122.651449 340 7025ft 249kts
24-Feb-19 10:26 45.327069 -122.685527 335 6869ft 253kts
24-Feb-19 10:27 45.391777 -122.721277 336 6450ft 255kts
24-Feb-19 10:28 45.455293 -122.756092 337 5986ft 236kts
24-Feb-19 10:29 45.514479 -122.788437 337 5189ft 232kts
24-Feb-19 10:30 45.571442 -122.822638 321 5011ft 227kts
24-Feb-19 10:31 45.608256 -122.893160 301 4859ft 222kts
24-Feb-19 10:32 45.646180 -122.963205 347 3365ft 222kts
24-Feb-19 10:33 45.696571 -122.936961 32 3119ft 189kts
24-Feb-19 10:34 45.693883 -122.870206 119 3104ft 194kts
24-Feb-19 10:35 45.672529 -122.817770 120 3086ft 169kts
24-Feb-19 10:36 45.652343 -122.767627 119 2300ft 136kts
24-Feb-19 10:37 45.633700 -122.720013 116 1603ft 141kts
24-Feb-19 10:38 45.615233 -122.673169 120 846ft 136kts
24-Feb-19 10:39 45.597815 -122.628390 119 151ft 124kts
24-Feb-19 10:40 45.587928 -122.602334 102 37ft 23kts
24-Feb-19 10:41 45.588063 -122.599345 73 37ft 11kts
24-Feb-19 10:42 45.586923 -122.595009 118 37ft 20kts
24-Feb-19 10:43 45.586584 -122.594294 129 37ft 0kts
24-Feb-19 10:44 45.586584 -122.594294 129 37ft 0kts
24-Feb-19 10:45 45.586586 -122.594297 129 37ft 0kts
24-Feb-19 10:46 45.586340 -122.593804 105 37ft 7kts
24-Feb-19 10:47 45.586764 -122.592891 54 37ft 0kts

Navigation Log

Ident Type
Flight plan parsing failed, navigation log unavailable